Thunder radar more information blitzortung!


Radar de pluja more information rain snow radar


Visita la nostra xarxa de llocs de meteo:

Template documentation
and downloads

And another site



Wind From: 11-12-2017 11:00 Until: 14:59 warning for: Wind Level: Yellow info button

Pagina Historial Weather Underground text

Diari Resum Juny 18, 2017 Unitats:  Tant    Imperial   Mètric
« Previous Dia
SegĂźent Dia »
Diari Setmana Mensual Anual Personalitzada
  Maxima: Minima: Media:
Temperatura: 94.1 °F /  34.5 °C 68.2 °F /  20.1 °C 79.5 °F /  26.4 °C
Punt de rosada: 65.5 °F /  18.6 °C 55.6 °F /  13.1 °C 62.6 °F /  17 °C
Humitat: 85 % 29 % 59 %
Wind Speed: 11.5 mph /  18.5 km/h - 3.2 mph /  5.2 km/h
RĂ fegues de vent: 13 mph /  20.9 km/h - -
Vent:- - ESE
Pression baro: 30 in /  1015.8 hPa 29.9 in /  1012.8 hPa -
Precipitacions: 0 in /  0.0 mm    
Historical Graphs
 
 
Dades de taula per Juny 18, 2017
Temps Temperatura Punt de rosada Pression baro Vent Wind Speed RĂ fegues de vent Humitat Rainfall Rate (Hourly)
00:00 70.7 °F /  21.5 °C 65.3 °F /  18.5 °C 29.9 in /  1013.8 hPa Calm   2 mph /  3.2 km/h 83 % 0 in /  0.0 mm
00:04 75.6 °F /  24.2 °C 64.2 °F /  17.9 °C 29.9 in /  1013.8 hPa SW 2.3 mph /  3.7 km/h 2.3 mph /  3.7 km/h 68 % 0 in /  0.0 mm
00:09 75.6 °F /  24.2 °C 64.8 °F /  18.2 °C 29.9 in /  1013.8 hPa SW 2.3 mph /  3.7 km/h 2.3 mph /  3.7 km/h 69 % 0 in /  0.0 mm
00:10 70.2 °F /  21.2 °C 64.8 °F /  18.2 °C 29.9 in /  1012.8 hPa East 1 mph /  1.6 km/h 1 mph /  1.6 km/h 83 % 0 in /  0.0 mm
00:20 70 °F /  21.1 °C 64.6 °F /  18.1 °C 29.9 in /  1012.8 hPa South 1 mph /  1.6 km/h   83 % 0 in /  0.0 mm
00:30 69.8 °F /  21.0 °C 64.8 °F /  18.2 °C 29.9 in /  1012.8 hPa Calm     84 % 0 in /  0.0 mm
00:40 69.4 °F /  20.8 °C 64.4 °F /  18.0 °C 29.9 in /  1013.8 hPa Calm     84 % 0 in /  0.0 mm
00:50 69.3 °F /  20.7 °C 64.6 °F /  18.1 °C 29.9 in /  1013.8 hPa Calm     85 % 0 in /  0.0 mm
01:00 69.1 °F /  20.6 °C 64.4 °F /  18.0 °C 29.9 in /  1012.8 hPa Calm     85 % 0 in /  0.0 mm
01:10 68.7 °F /  20.4 °C 63.7 °F /  17.6 °C 29.9 in /  1012.8 hPa Calm   1 mph /  1.6 km/h 84 % 0 in /  0.0 mm
01:20 68.5 °F /  20.3 °C 63.5 °F /  17.5 °C 29.9 in /  1012.8 hPa Calm   1 mph /  1.6 km/h 84 % 0 in /  0.0 mm
01:30 68.2 °F /  20.1 °C 63.1 °F /  17.3 °C 29.9 in /  1012.8 hPa Calm     84 % 0 in /  0.0 mm
01:40 68.2 °F /  20.1 °C 63.1 °F /  17.3 °C 29.9 in /  1013.8 hPa Calm     84 % 0 in /  0.0 mm
01:50 68.2 °F /  20.1 °C 63.5 °F /  17.5 °C 29.9 in /  1013.8 hPa Calm   1 mph /  1.6 km/h 85 % 0 in /  0.0 mm
02:00 68.9 °F /  20.5 °C 64.2 °F /  17.9 °C 29.9 in /  1012.8 hPa Calm   1 mph /  1.6 km/h 85 % 0 in /  0.0 mm
02:10 69.3 °F /  20.7 °C 63.9 °F /  17.7 °C 29.9 in /  1013.8 hPa NE 1 mph /  1.6 km/h 1 mph /  1.6 km/h 83 % 0 in /  0.0 mm
02:20 69.8 °F /  21.0 °C 64 °F /  17.8 °C 29.9 in /  1013.8 hPa NE 1 mph /  1.6 km/h 1 mph /  1.6 km/h 82 % 0 in /  0.0 mm
02:30 70.5 °F /  21.4 °C 64.4 °F /  18.0 °C 29.9 in /  1013.8 hPa Calm     81 % 0 in /  0.0 mm
02:40 71.2 °F /  21.8 °C 64.4 °F /  18.0 °C 29.9 in /  1013.8 hPa Calm   1 mph /  1.6 km/h 79 % 0 in /  0.0 mm
02:50 71.8 °F /  22.1 °C 63.3 °F /  17.4 °C 29.9 in /  1013.8 hPa ENE 3 mph /  4.8 km/h 3 mph /  4.8 km/h 75 % 0 in /  0.0 mm
03:00 71.8 °F /  22.1 °C 63.3 °F /  17.4 °C 29.9 in /  1013.8 hPa NE 3 mph /  4.8 km/h 4 mph /  6.4 km/h 75 % 0 in /  0.0 mm
03:10 72.5 °F /  22.5 °C 63.7 °F /  17.6 °C 29.9 in /  1013.8 hPa NE 2 mph /  3.2 km/h 3 mph /  4.8 km/h 74 % 0 in /  0.0 mm
03:20 72.7 °F /  22.6 °C 63.5 °F /  17.5 °C 29.9 in /  1013.8 hPa NE 2 mph /  3.2 km/h 4 mph /  6.4 km/h 73 % 0 in /  0.0 mm
03:30 73.9 °F /  23.3 °C 64.8 °F /  18.2 °C 29.9 in /  1013.8 hPa Calm   3 mph /  4.8 km/h 73 % 0 in /  0.0 mm
03:40 74.1 °F /  23.4 °C 64.6 °F /  18.1 °C 29.9 in /  1012.8 hPa NE 2 mph /  3.2 km/h 3 mph /  4.8 km/h 72 % 0 in /  0.0 mm
03:50 75.4 °F /  24.1 °C 64.9 °F /  18.3 °C 29.9 in /  1012.8 hPa NE 2 mph /  3.2 km/h 4 mph /  6.4 km/h 70 % 0 in /  0.0 mm
04:00 75.6 °F /  24.2 °C 64.8 °F /  18.2 °C 29.9 in /  1013.8 hPa NE 2 mph /  3.2 km/h 3 mph /  4.8 km/h 69 % 0 in /  0.0 mm
04:10 75.9 °F /  24.4 °C 64.2 °F /  17.9 °C 29.9 in /  1013.8 hPa NE 2 mph /  3.2 km/h 4 mph /  6.4 km/h 67 % 0 in /  0.0 mm
04:20 77 °F /  25.0 °C 63.9 °F /  17.7 °C 29.9 in /  1013.8 hPa NE 3 mph /  4.8 km/h 3 mph /  4.8 km/h 64 % 0 in /  0.0 mm
04:30 77.9 °F /  25.5 °C 64.2 °F /  17.9 °C 29.9 in /  1012.8 hPa NNE 1 mph /  1.6 km/h 3 mph /  4.8 km/h 63 % 0 in /  0.0 mm
04:40 78.1 °F /  25.6 °C 64 °F /  17.8 °C 29.9 in /  1013.8 hPa NNE 1 mph /  1.6 km/h 4 mph /  6.4 km/h 62 % 0 in /  0.0 mm
04:50 79.3 °F /  26.3 °C 65.1 °F /  18.4 °C 29.9 in /  1013.8 hPa NE 2 mph /  3.2 km/h 4 mph /  6.4 km/h 62 % 0 in /  0.0 mm
05:00 79.7 °F /  26.5 °C 65.5 °F /  18.6 °C 29.9 in /  1013.8 hPa ENE 3 mph /  4.8 km/h 4 mph /  6.4 km/h 62 % 0 in /  0.0 mm
05:10 79.9 °F /  26.6 °C 65.1 °F /  18.4 °C 29.9 in /  1013.8 hPa NE 3 mph /  4.8 km/h 4 mph /  6.4 km/h 61 % 0 in /  0.0 mm
05:20 80.8 °F /  27.1 °C 65.1 °F /  18.4 °C 29.9 in /  1013.8 hPa NE 3 mph /  4.8 km/h 5 mph /  8.0 km/h 59 % 0 in /  0.0 mm
05:30 81 °F /  27.2 °C 64.2 °F /  17.9 °C 29.9 in /  1013.8 hPa ENE 5 mph /  8.0 km/h 6 mph /  9.7 km/h 57 % 0 in /  0.0 mm
05:40 82.8 °F /  28.2 °C 64.9 °F /  18.3 °C 29.9 in /  1013.8 hPa ENE 2 mph /  3.2 km/h 5 mph /  8.0 km/h 55 % 0 in /  0.0 mm
05:50 82.8 °F /  28.2 °C 63.9 °F /  17.7 °C 29.9 in /  1013.8 hPa East 5 mph /  8.0 km/h 5 mph /  8.0 km/h 53 % 0 in /  0.0 mm
06:00 83.3 °F /  28.5 °C 63.9 °F /  17.7 °C 29.9 in /  1013.8 hPa ESE 3 mph /  4.8 km/h 6 mph /  9.7 km/h 52 % 0 in /  0.0 mm
06:10 83.3 °F /  28.5 °C 62.8 °F /  17.1 °C 29.9 in /  1013.8 hPa ESE 5 mph /  8.0 km/h 8 mph /  12.9 km/h 50 % 0 in /  0.0 mm
06:20 85.3 °F /  29.6 °C 64.6 °F /  18.1 °C 29.9 in /  1013.8 hPa SE 2 mph /  3.2 km/h 6 mph /  9.7 km/h 50 % 0 in /  0.0 mm
06:30 85.1 °F /  29.5 °C 63.9 °F /  17.7 °C 29.9 in /  1013.8 hPa East 3 mph /  4.8 km/h 6 mph /  9.7 km/h 49 % 0 in /  0.0 mm
06:40 84.9 °F /  29.4 °C 62.4 °F /  16.9 °C 29.9 in /  1012.8 hPa East 7 mph /  11.3 km/h 7 mph /  11.3 km/h 47 % 0 in /  0.0 mm
06:50 85.1 °F /  29.5 °C 62.6 °F /  17.0 °C 29.9 in /  1012.8 hPa ESE 3 mph /  4.8 km/h 7 mph /  11.3 km/h 47 % 0 in /  0.0 mm
07:00 85.8 °F /  29.9 °C 62.6 °F /  17.0 °C 29.9 in /  1013.8 hPa ESE 5 mph /  8.0 km/h 5 mph /  8.0 km/h 46 % 0 in /  0.0 mm
07:10 86.2 °F /  30.1 °C 63 °F /  17.2 °C 29.9 in /  1013.8 hPa ESE 3 mph /  4.8 km/h 8 mph /  12.9 km/h 46 % 0 in /  0.0 mm
07:20 86 °F /  30.0 °C 62.2 °F /  16.8 °C 29.9 in /  1013.8 hPa East 6 mph /  9.7 km/h 7 mph /  11.3 km/h 45 % 0 in /  0.0 mm
07:30 86 °F /  30.0 °C 61 °F /  16.1 °C 29.9 in /  1013.8 hPa East 6 mph /  9.7 km/h 8 mph /  12.9 km/h 43 % 0 in /  0.0 mm
07:40 86.5 °F /  30.3 °C 62.1 °F /  16.7 °C 29.9 in /  1013.8 hPa ESE 6 mph /  9.7 km/h 9 mph /  14.5 km/h 44 % 0 in /  0.0 mm
07:50 86.4 °F /  30.2 °C 61.9 °F /  16.6 °C 29.9 in /  1013.8 hPa ESE 6 mph /  9.7 km/h 8 mph /  12.9 km/h 44 % 0 in /  0.0 mm
08:00 86 °F /  30.0 °C 62.2 °F /  16.8 °C 30 in /  1014.8 hPa ESE 7 mph /  11.3 km/h 11 mph /  17.7 km/h 45 % 0 in /  0.0 mm
08:10 85.8 °F /  29.9 °C 62.6 °F /  17.0 °C 29.9 in /  1013.8 hPa East 7 mph /  11.3 km/h 10 mph /  16.1 km/h 46 % 0 in /  0.0 mm
08:20 86.5 °F /  30.3 °C 62.8 °F /  17.1 °C 29.9 in /  1013.8 hPa East 6 mph /  9.7 km/h 6 mph /  9.7 km/h 45 % 0 in /  0.0 mm
08:30 86.7 °F /  30.4 °C 62.8 °F /  17.1 °C 29.9 in /  1013.8 hPa ESE 5 mph /  8.0 km/h 6 mph /  9.7 km/h 45 % 0 in /  0.0 mm
08:40 87.4 °F /  30.8 °C 63.5 °F /  17.5 °C 29.9 in /  1012.8 hPa ESE 6 mph /  9.7 km/h 13 mph /  20.9 km/h 45 % 0 in /  0.0 mm
08:50 87.3 °F /  30.7 °C 62.8 °F /  17.1 °C 29.9 in /  1012.8 hPa ESE 8 mph /  12.9 km/h 8 mph /  12.9 km/h 44 % 0 in /  0.0 mm
09:00 87.8 °F /  31.0 °C 62.4 °F /  16.9 °C 29.9 in /  1013.8 hPa ESE 6 mph /  9.7 km/h 10 mph /  16.1 km/h 43 % 0 in /  0.0 mm
09:10 89.2 °F /  31.8 °C 62.4 °F /  16.9 °C 29.9 in /  1013.8 hPa ESE 5 mph /  8.0 km/h 6 mph /  9.7 km/h 41 % 0 in /  0.0 mm
09:20 90.9 °F /  32.7 °C 63.9 °F /  17.7 °C 29.9 in /  1013.8 hPa SE 3 mph /  4.8 km/h 5 mph /  8.0 km/h 41 % 0 in /  0.0 mm
09:30 90.9 °F /  32.7 °C 63.1 °F /  17.3 °C 29.9 in /  1013.8 hPa SE 2 mph /  3.2 km/h 4 mph /  6.4 km/h 40 % 0 in /  0.0 mm
09:40 91.9 °F /  33.3 °C 61.2 °F /  16.2 °C 29.9 in /  1012.8 hPa SSW 5 mph /  8.0 km/h 6 mph /  9.7 km/h 36 % 0 in /  0.0 mm
09:50 93 °F /  33.9 °C 61.3 °F /  16.3 °C 29.9 in /  1012.8 hPa SW 6 mph /  9.7 km/h 6 mph /  9.7 km/h 35 % 0 in /  0.0 mm
10:00 93 °F /  33.9 °C 61.3 °F /  16.3 °C 29.9 in /  1012.8 hPa SW 5 mph /  8.0 km/h 5 mph /  8.0 km/h 35 % 0 in /  0.0 mm
10:10 93.4 °F /  34.1 °C 61.5 °F /  16.4 °C 29.9 in /  1013.8 hPa SSW 3 mph /  4.8 km/h 6 mph /  9.7 km/h 35 % 0 in /  0.0 mm
10:20 93.4 °F /  34.1 °C 60.8 °F /  16.0 °C 29.9 in /  1013.8 hPa SSW 5 mph /  8.0 km/h 7 mph /  11.3 km/h 34 % 0 in /  0.0 mm
10:30 92.8 °F /  33.8 °C 60.3 °F /  15.7 °C 29.9 in /  1012.8 hPa SW 2 mph /  3.2 km/h 8 mph /  12.9 km/h 34 % 0 in /  0.0 mm
10:40 92.7 °F /  33.7 °C 60.3 °F /  15.7 °C 29.9 in /  1012.8 hPa SW 6 mph /  9.7 km/h 6 mph /  9.7 km/h 34 % 0 in /  0.0 mm
10:50 93 °F /  33.9 °C 60.4 °F /  15.8 °C 29.9 in /  1012.8 hPa SW 7 mph /  11.3 km/h 7 mph /  11.3 km/h 34 % 0 in /  0.0 mm
11:00 93.2 °F /  34.0 °C 59.7 °F /  15.4 °C 29.9 in /  1012.8 hPa SW 3 mph /  4.8 km/h 8 mph /  12.9 km/h 33 % 0 in /  0.0 mm
11:10 92.8 °F /  33.8 °C 59.5 °F /  15.3 °C 29.9 in /  1013.8 hPa SW 5 mph /  8.0 km/h 10 mph /  16.1 km/h 33 % 0 in /  0.0 mm
11:20 93.9 °F /  34.4 °C 59.5 °F /  15.3 °C 29.9 in /  1013.8 hPa SW 3 mph /  4.8 km/h 6 mph /  9.7 km/h 32 % 0 in /  0.0 mm
11:30 93.4 °F /  34.1 °C 58.3 °F /  14.6 °C 29.9 in /  1013.8 hPa WSW 5 mph /  8.0 km/h 6 mph /  9.7 km/h 31 % 0 in /  0.0 mm
11:40 93 °F /  33.9 °C 58.8 °F /  14.9 °C 29.9 in /  1013.8 hPa SW 3 mph /  4.8 km/h 9 mph /  14.5 km/h 32 % 0 in /  0.0 mm
11:50 93 °F /  33.9 °C 58.8 °F /  14.9 °C 29.9 in /  1013.8 hPa SW 3 mph /  4.8 km/h 9 mph /  14.5 km/h 32 % 0 in /  0.0 mm
12:00 94.1 °F /  34.5 °C 57.9 °F /  14.4 °C 29.9 in /  1012.8 hPa SW 3 mph /  4.8 km/h 5 mph /  8.0 km/h 30 % 0 in /  0.0 mm
12:10 92.5 °F /  33.6 °C 55.6 °F /  13.1 °C 29.9 in /  1012.8 hPa SW 5 mph /  8.0 km/h 9 mph /  14.5 km/h 29 % 0 in /  0.0 mm
12:20 93.2 °F /  34.0 °C 57.2 °F /  14.0 °C 29.9 in /  1012.8 hPa SW 3 mph /  4.8 km/h 7 mph /  11.3 km/h 30 % 0 in /  0.0 mm
12:30 93 °F /  33.9 °C 57 °F /  13.9 °C 29.9 in /  1013.8 hPa SW 6 mph /  9.7 km/h 6 mph /  9.7 km/h 30 % 0 in /  0.0 mm
12:40 93 °F /  33.9 °C 57.9 °F /  14.4 °C 29.9 in /  1012.8 hPa SW 3 mph /  4.8 km/h 9 mph /  14.5 km/h 31 % 0 in /  0.0 mm
12:50 93 °F /  33.9 °C 57 °F /  13.9 °C 29.9 in /  1012.8 hPa SSW 2 mph /  3.2 km/h 6 mph /  9.7 km/h 30 % 0 in /  0.0 mm
13:00 92.7 °F /  33.7 °C 56.7 °F /  13.7 °C 29.9 in /  1013.8 hPa SW 3 mph /  4.8 km/h 5 mph /  8.0 km/h 30 % 0 in /  0.0 mm
13:10 92.5 °F /  33.6 °C 56.5 °F /  13.6 °C 29.9 in /  1013.8 hPa WSW 3 mph /  4.8 km/h 6 mph /  9.7 km/h 30 % 0 in /  0.0 mm
13:20 92.3 °F /  33.5 °C 56.5 °F /  13.6 °C 29.9 in /  1013.8 hPa SW 5 mph /  8.0 km/h 6 mph /  9.7 km/h 30 % 0 in /  0.0 mm
13:30 91.9 °F /  33.3 °C 56.1 °F /  13.4 °C 29.9 in /  1012.8 hPa SW 7 mph /  11.3 km/h 7 mph /  11.3 km/h 30 % 0 in /  0.0 mm
13:40 91.4 °F /  33.0 °C 55.6 °F /  13.1 °C 29.9 in /  1012.8 hPa SW 6 mph /  9.7 km/h 6 mph /  9.7 km/h 30 % 0 in /  0.0 mm
13:50 91 °F /  32.8 °C 56.1 °F /  13.4 °C 29.9 in /  1012.8 hPa WSW 5 mph /  8.0 km/h 9 mph /  14.5 km/h 31 % 0 in /  0.0 mm
14:00 90.7 °F /  32.6 °C 55.9 °F /  13.3 °C 29.9 in /  1013.8 hPa SW 6 mph /  9.7 km/h 6 mph /  9.7 km/h 31 % 0 in /  0.0 mm
14:10 90.5 °F /  32.5 °C 56.7 °F /  13.7 °C 29.9 in /  1012.8 hPa SW 3 mph /  4.8 km/h 5 mph /  8.0 km/h 32 % 0 in /  0.0 mm
14:20 88.7 °F /  31.5 °C 57.6 °F /  14.2 °C 29.9 in /  1012.8 hPa WSW 2 mph /  3.2 km/h 3 mph /  4.8 km/h 35 % 0 in /  0.0 mm
19:10 73.9 °F /  23.3 °C 63.1 °F /  17.3 °C 30 in /  1015.8 hPa NNE 1 mph /  1.6 km/h 1 mph /  1.6 km/h 69 % 0 in /  0.0 mm
19:20 73.8 °F /  23.2 °C 63.3 °F /  17.4 °C 30 in /  1015.8 hPa NNE 1 mph /  1.6 km/h 1 mph /  1.6 km/h 70 % 0 in /  0.0 mm
19:29 85.8 °F /  29.9 °C 60.1 °F /  15.6 °C 29.9 in /  1013.8 hPa ENE 8.1 mph /  13.0 km/h 8.1 mph /  13.0 km/h 42 % 0 in /  0.0 mm
19:30 73.6 °F /  23.1 °C 63.1 °F /  17.3 °C 30 in /  1015.8 hPa Calm   1 mph /  1.6 km/h 70 % 0 in /  0.0 mm
19:34 84.7 °F /  29.3 °C 60.4 °F /  15.8 °C 29.9 in /  1013.8 hPa ESE 5.8 mph /  9.3 km/h 5.8 mph /  9.3 km/h 44 % 0 in /  0.0 mm
19:39 84.2 °F /  29.0 °C 61.2 °F /  16.2 °C 29.9 in /  1013.8 hPa SE 9.2 mph /  14.8 km/h 9.2 mph /  14.8 km/h 46 % 0 in /  0.0 mm
19:40 73.4 °F /  23.0 °C 63 °F /  17.2 °C 30 in /  1014.8 hPa Calm     70 % 0 in /  0.0 mm
19:44 83.7 °F /  28.7 °C 62.4 °F /  16.9 °C 29.9 in /  1013.8 hPa ESE 11.5 mph /  18.5 km/h 11.5 mph /  18.5 km/h 49 % 0 in /  0.0 mm
19:49 83.1 °F /  28.4 °C 63.1 °F /  17.3 °C 29.9 in /  1013.8 hPa East 10.4 mph /  16.7 km/h 10.4 mph /  16.7 km/h 51 % 0 in /  0.0 mm
19:50 73.2 °F /  22.9 °C 63.1 °F /  17.3 °C 30 in /  1014.8 hPa Calm     71 % 0 in /  0.0 mm
19:54 82.9 °F /  28.3 °C 63 °F /  17.2 °C 29.9 in /  1013.8 hPa East 7.6 mph /  12.2 km/h 7.6 mph /  12.2 km/h 51 % 0 in /  0.0 mm
19:59 82.8 °F /  28.2 °C 63.9 °F /  17.7 °C 29.9 in /  1013.8 hPa NNE 4.6 mph /  7.4 km/h 4.6 mph /  7.4 km/h 53 % 0 in /  0.0 mm
20:00 73.2 °F /  22.9 °C 63.1 °F /  17.3 °C 30 in /  1015.8 hPa Calm   2 mph /  3.2 km/h 71 % 0 in /  0.0 mm
20:04 82.6 °F /  28.1 °C 63.7 °F /  17.6 °C 29.9 in /  1013.8 hPa SE 8.1 mph /  13.0 km/h 8.1 mph /  13.0 km/h 53 % 0 in /  0.0 mm
20:09 82.2 °F /  27.9 °C 64.4 °F /  18.0 °C 29.9 in /  1013.8 hPa East 5.9 mph /  9.5 km/h 5.9 mph /  9.5 km/h 55 % 0 in /  0.0 mm
20:10 73 °F /  22.8 °C 63.1 °F /  17.3 °C 30 in /  1015.8 hPa Calm     71 % 0 in /  0.0 mm
20:14 81.7 °F /  27.6 °C 64.6 °F /  18.1 °C 29.9 in /  1013.8 hPa ESE 6.9 mph /  11.1 km/h 6.9 mph /  11.1 km/h 56 % 0 in /  0.0 mm
20:19 81 °F /  27.2 °C 64.2 °F /  17.9 °C 29.9 in /  1013.8 hPa ENE 9.2 mph /  14.8 km/h 9.2 mph /  14.8 km/h 57 % 0 in /  0.0 mm
20:20 72.9 °F /  22.7 °C 63.3 °F /  17.4 °C 30 in /  1015.8 hPa Calm     72 % 0 in /  0.0 mm
20:24 80.6 °F /  27.0 °C 64.6 °F /  18.1 °C 29.9 in /  1013.8 hPa ENE 8.1 mph /  13.0 km/h 8.1 mph /  13.0 km/h 58 % 0 in /  0.0 mm
20:29 80.1 °F /  26.7 °C 64.9 °F /  18.3 °C 29.9 in /  1013.8 hPa ENE 6.9 mph /  11.1 km/h 6.9 mph /  11.1 km/h 60 % 0 in /  0.0 mm
20:30 72.7 °F /  22.6 °C 63.1 °F /  17.3 °C 30 in /  1015.8 hPa Calm     72 % 0 in /  0.0 mm
20:34 79.9 °F /  26.6 °C 64.8 °F /  18.2 °C 29.9 in /  1013.8 hPa ESE 6 mph /  9.7 km/h 6 mph /  9.7 km/h 60 % 0 in /  0.0 mm
20:39 79.7 °F /  26.5 °C 65.1 °F /  18.4 °C 29.9 in /  1013.8 hPa ENE 5.8 mph /  9.3 km/h 5.8 mph /  9.3 km/h 61 % 0 in /  0.0 mm
20:40 72.1 °F /  22.3 °C 62.6 °F /  17.0 °C 30 in /  1015.8 hPa Calm     72 % 0 in /  0.0 mm
20:44 79.3 °F /  26.3 °C 64.8 °F /  18.2 °C 29.9 in /  1013.8 hPa ENE 5.8 mph /  9.3 km/h 5.8 mph /  9.3 km/h 61 % 0 in /  0.0 mm
20:49 79 °F /  26.1 °C 64.8 °F /  18.2 °C 29.9 in /  1013.8 hPa ENE 5.4 mph /  8.7 km/h 5.4 mph /  8.7 km/h 62 % 0 in /  0.0 mm
20:50 72.1 °F /  22.3 °C 63 °F /  17.2 °C 30 in /  1015.8 hPa Calm     73 % 0 in /  0.0 mm
20:54 79 °F /  26.1 °C 64.4 °F /  18.0 °C 29.9 in /  1013.8 hPa ENE 4.6 mph /  7.4 km/h 4.6 mph /  7.4 km/h 61 % 0 in /  0.0 mm
20:59 78.6 °F /  25.9 °C 64 °F /  17.8 °C 29.9 in /  1013.8 hPa NE 4.6 mph /  7.4 km/h 4.6 mph /  7.4 km/h 61 % 0 in /  0.0 mm
21:00 72 °F /  22.2 °C 62.4 °F /  16.9 °C 30 in /  1015.8 hPa WNW 1 mph /  1.6 km/h 1 mph /  1.6 km/h 72 % 0 in /  0.0 mm
21:04 78.4 °F /  25.8 °C 63.9 °F /  17.7 °C 29.9 in /  1013.8 hPa East 4.6 mph /  7.4 km/h 4.6 mph /  7.4 km/h 61 % 0 in /  0.0 mm
21:09 78.3 °F /  25.7 °C 64.2 °F /  17.9 °C 29.9 in /  1013.8 hPa ENE 4.6 mph /  7.4 km/h 4.6 mph /  7.4 km/h 62 % 0 in /  0.0 mm
21:10 72 °F /  22.2 °C 62.8 °F /  17.1 °C 30 in /  1015.8 hPa Calm     73 % 0 in /  0.0 mm
21:14 78.1 °F /  25.6 °C 64 °F /  17.8 °C 29.9 in /  1012.8 hPa NE 5.8 mph /  9.3 km/h 5.8 mph /  9.3 km/h 62 % 0 in /  0.0 mm
21:19 77.9 °F /  25.5 °C 63.9 °F /  17.7 °C 29.9 in /  1012.8 hPa NNE 4.6 mph /  7.4 km/h 4.6 mph /  7.4 km/h 62 % 0 in /  0.0 mm
21:20 71.8 °F /  22.1 °C 63 °F /  17.2 °C 30 in /  1015.8 hPa Calm     74 % 0 in /  0.0 mm
21:24 77.7 °F /  25.4 °C 63.7 °F /  17.6 °C 29.9 in /  1012.8 hPa ENE 4.6 mph /  7.4 km/h 4.6 mph /  7.4 km/h 62 % 0 in /  0.0 mm
21:25 77.5 °F /  25.3 °C 63.5 °F /  17.5 °C 29.9 in /  1012.8 hPa ENE 3.5 mph /  5.6 km/h 3.5 mph /  5.6 km/h 62 % 0 in /  0.0 mm
21:30 77.4 °F /  25.2 °C 63.3 °F /  17.4 °C 29.9 in /  1013.8 hPa East 4.6 mph /  7.4 km/h 4.6 mph /  7.4 km/h 62 % 0 in /  0.0 mm
21:35 77.4 °F /  25.2 °C 63.3 °F /  17.4 °C 29.9 in /  1013.8 hPa East 3.5 mph /  5.6 km/h 3.5 mph /  5.6 km/h 62 % 0 in /  0.0 mm
21:40 77.2 °F /  25.1 °C 63.1 °F /  17.3 °C 29.9 in /  1013.8 hPa ENE 4 mph /  6.4 km/h 4 mph /  6.4 km/h 62 % 0 in /  0.0 mm
21:45 77 °F /  25.0 °C 63 °F /  17.2 °C 29.9 in /  1013.8 hPa ENE 4.6 mph /  7.4 km/h 4.6 mph /  7.4 km/h 62 % 0 in /  0.0 mm
21:50 76.8 °F /  24.9 °C 63.7 °F /  17.6 °C 29.9 in /  1013.8 hPa ENE 5.9 mph /  9.5 km/h 5.9 mph /  9.5 km/h 64 % 0 in /  0.0 mm
21:51 76.8 °F /  24.9 °C 63.7 °F /  17.6 °C 29.9 in /  1013.8 hPa ENE 5.9 mph /  9.5 km/h 5.9 mph /  9.5 km/h 64 % 0 in /  0.0 mm
21:56 76.6 °F /  24.8 °C 64 °F /  17.8 °C 29.9 in /  1013.8 hPa NNE 4.6 mph /  7.4 km/h 4.6 mph /  7.4 km/h 65 % 0 in /  0.0 mm
22:00 70.7 °F /  21.5 °C 62.4 °F /  16.9 °C 30 in /  1014.8 hPa Calm   1 mph /  1.6 km/h 75 % 0 in /  0.0 mm
22:01 76.5 °F /  24.7 °C 63.9 °F /  17.7 °C 29.9 in /  1013.8 hPa ENE 4.6 mph /  7.4 km/h 4.6 mph /  7.4 km/h 65 % 0 in /  0.0 mm
22:06 76.3 °F /  24.6 °C 63.7 °F /  17.6 °C 29.9 in /  1013.8 hPa ENE 2.3 mph /  3.7 km/h 2.3 mph /  3.7 km/h 65 % 0 in /  0.0 mm
22:10 70.5 °F /  21.4 °C 62.6 °F /  17.0 °C 30 in /  1014.8 hPa North 1 mph /  1.6 km/h 2 mph /  3.2 km/h 76 % 0 in /  0.0 mm
22:11 76.1 °F /  24.5 °C 63.9 °F /  17.7 °C 29.9 in /  1013.8 hPa East 4 mph /  6.4 km/h 4 mph /  6.4 km/h 66 % 0 in /  0.0 mm
22:16 76.1 °F /  24.5 °C 63.9 °F /  17.7 °C 30 in /  1014.8 hPa SSE 3.5 mph /  5.6 km/h 3.5 mph /  5.6 km/h 66 % 0 in /  0.0 mm
22:20 70.5 °F /  21.4 °C 62.6 °F /  17.0 °C 30 in /  1014.8 hPa NE 1 mph /  1.6 km/h 1 mph /  1.6 km/h 76 % 0 in /  0.0 mm
22:21 75.9 °F /  24.4 °C 63.7 °F /  17.6 °C 30 in /  1014.8 hPa NE 2.6 mph /  4.2 km/h 2.6 mph /  4.2 km/h 66 % 0 in /  0.0 mm
22:26 75.7 °F /  24.3 °C 63.7 °F /  17.6 °C 30 in /  1014.8 hPa East 3.5 mph /  5.6 km/h 3.5 mph /  5.6 km/h 66 % 0 in /  0.0 mm
22:30 70.5 °F /  21.4 °C 62.6 °F /  17.0 °C 30 in /  1014.8 hPa Calm   2 mph /  3.2 km/h 76 % 0 in /  0.0 mm
22:31 75.7 °F /  24.3 °C 63.7 °F /  17.6 °C 30 in /  1014.8 hPa NE 3.5 mph /  5.6 km/h 3.5 mph /  5.6 km/h 66 % 0 in /  0.0 mm
22:36 75.6 °F /  24.2 °C 63.3 °F /  17.4 °C 30 in /  1014.8 hPa ENE 4.6 mph /  7.4 km/h 4.6 mph /  7.4 km/h 66 % 0 in /  0.0 mm
22:40 70.3 °F /  21.3 °C 62.4 °F /  16.9 °C 30 in /  1014.8 hPa Calm     76 % 0 in /  0.0 mm
22:41 75.6 °F /  24.2 °C 63.3 °F /  17.4 °C 30 in /  1014.8 hPa NE 3.5 mph /  5.6 km/h 3.5 mph /  5.6 km/h 66 % 0 in /  0.0 mm
22:46 75.6 °F /  24.2 °C 63.3 °F /  17.4 °C 30 in /  1015.8 hPa East 2.4 mph /  3.9 km/h 2.4 mph /  3.9 km/h 66 % 0 in /  0.0 mm
22:50 70.3 °F /  21.3 °C 62.8 °F /  17.1 °C 30 in /  1015.8 hPa Calm     77 % 0 in /  0.0 mm
22:51 75.4 °F /  24.1 °C 63.7 °F /  17.6 °C 30 in /  1015.8 hPa ENE 2.3 mph /  3.7 km/h 2.3 mph /  3.7 km/h 67 % 0 in /  0.0 mm
22:56 75.4 °F /  24.1 °C 63.7 °F /  17.6 °C 30 in /  1015.8 hPa NNE 2.3 mph /  3.7 km/h 2.3 mph /  3.7 km/h 67 % 0 in /  0.0 mm
23:00 69.4 °F /  20.8 °C 61.9 °F /  16.6 °C 30 in /  1015.8 hPa NNE 1 mph /  1.6 km/h 2 mph /  3.2 km/h 77 % 0 in /  0.0 mm
23:01 75.4 °F /  24.1 °C 63.7 °F /  17.6 °C 30 in /  1015.8 hPa ENE 2.4 mph /  3.9 km/h 2.4 mph /  3.9 km/h 67 % 0 in /  0.0 mm
23:06 75.2 °F /  24.0 °C 63.5 °F /  17.5 °C 30 in /  1015.8 hPa ENE 2.3 mph /  3.7 km/h 2.3 mph /  3.7 km/h 67 % 0 in /  0.0 mm
23:10 69.4 °F /  20.8 °C 62.2 °F /  16.8 °C 30 in /  1015.8 hPa West 1 mph /  1.6 km/h 1 mph /  1.6 km/h 78 % 0 in /  0.0 mm
23:11 75.2 °F /  24.0 °C 63.5 °F /  17.5 °C 30 in /  1015.8 hPa ENE 1.4 mph /  2.3 km/h 1.4 mph /  2.3 km/h 67 % 0 in /  0.0 mm
23:16 75 °F /  23.9 °C 63.7 °F /  17.6 °C 30 in /  1015.8 hPa ENE 2.3 mph /  3.7 km/h 2.3 mph /  3.7 km/h 68 % 0 in /  0.0 mm
23:20 69.3 °F /  20.7 °C 62.1 °F /  16.7 °C 30 in /  1015.8 hPa NE 1 mph /  1.6 km/h 2 mph /  3.2 km/h 78 % 0 in /  0.0 mm
23:21 75 °F /  23.9 °C 63.7 °F /  17.6 °C 30 in /  1015.8 hPa ENE 2.3 mph /  3.7 km/h 2.3 mph /  3.7 km/h 68 % 0 in /  0.0 mm
23:26 75 °F /  23.9 °C 63.7 °F /  17.6 °C 30 in /  1015.8 hPa NE 2.3 mph /  3.7 km/h 2.3 mph /  3.7 km/h 68 % 0 in /  0.0 mm
23:30 69.3 °F /  20.7 °C 62.1 °F /  16.7 °C 30 in /  1015.8 hPa Calm   2 mph /  3.2 km/h 78 % 0 in /  0.0 mm
23:31 74.8 °F /  23.8 °C 64 °F /  17.8 °C 30 in /  1015.8 hPa NE 2.3 mph /  3.7 km/h 2.3 mph /  3.7 km/h 69 % 0 in /  0.0 mm
23:36 74.8 °F /  23.8 °C 64 °F /  17.8 °C 30 in /  1015.8 hPa NE 2.3 mph /  3.7 km/h   69 % 0 in /  0.0 mm
23:40 69.1 °F /  20.6 °C 61.9 °F /  16.6 °C 30 in /  1015.8 hPa NE 2 mph /  3.2 km/h 3 mph /  4.8 km/h 78 % 0 in /  0.0 mm
23:41 74.7 °F /  23.7 °C 63.9 °F /  17.7 °C 30 in /  1015.8 hPa NNE 1.2 mph /  1.9 km/h   69 % 0 in /  0.0 mm
23:46 74.5 °F /  23.6 °C 63.7 °F /  17.6 °C 30 in /  1015.8 hPa NNE 2.4 mph /  3.9 km/h 2.4 mph /  3.9 km/h 69 % 0 in /  0.0 mm
23:50 68.5 °F /  20.3 °C 61.3 °F /  16.3 °C 30 in /  1015.8 hPa NE 1 mph /  1.6 km/h 2 mph /  3.2 km/h 78 % 0 in /  0.0 mm
23:51 74.3 °F /  23.5 °C 63.5 °F /  17.5 °C 30 in /  1015.8 hPa NNE 2.4 mph /  3.9 km/h 2.4 mph /  3.9 km/h 69 % 0 in /  0.0 mm
23:56 74.3 °F /  23.5 °C 63.5 °F /  17.5 °C 30 in /  1015.8 hPa NNE 1.2 mph /  1.9 km/h   69 % 0 in /  0.0 mm
Meteo Sesrovires
Elogis d' Weather Underground - 3.5 mb

Guio original per  Jim McMurry - jmcmurry@mwt.net Adaptat per a la plantilla per  Wim van der Kuil - Leuven-Template.eu

Trobareu la nostra informacio del temps tambe a:

Weather Underground

AWEKAS